createdAt,value
2023-01-05T00:04:57.029Z,9.64
2023-01-05T00:10:00.036Z,9.62
2023-01-05T00:15:20.527Z,9.56
2023-01-05T00:20:42.406Z,9.42
2023-01-05T00:25:45.383Z,9.27
2023-01-05T00:30:51.705Z,9.22
2023-01-05T00:35:56.117Z,9.23
2023-01-05T00:40:59.138Z,9.19
2023-01-05T00:46:02.496Z,9.16
2023-01-05T00:51:07.401Z,9.08
2023-01-05T00:56:10.389Z,9.08
2023-01-05T01:01:14.465Z,9.08
2023-01-05T01:06:21.206Z,9.03
2023-01-05T01:11:24.218Z,8.98
2023-01-05T01:16:27.393Z,8.98
2023-01-05T01:21:31.864Z,9.03
2023-01-05T01:26:35.310Z,9.00
2023-01-05T01:31:38.364Z,9.00
2023-01-05T01:36:43.197Z,9.00
2023-01-05T01:41:46.932Z,9.01
2023-01-05T01:46:50.243Z,8.98
2023-01-05T01:51:54.691Z,9.05
2023-01-05T01:57:00.423Z,8.99
2023-01-05T02:02:03.631Z,9.02
2023-01-05T02:07:13.487Z,9.05
2023-01-05T02:12:30.943Z,9.10
2023-01-05T02:17:44.014Z,9.12
2023-01-05T02:23:32.935Z,9.06
2023-01-05T02:28:54.836Z,9.00
2023-01-05T02:34:16.742Z,8.95
2023-01-05T02:39:25.613Z,8.95
2023-01-05T02:44:31.512Z,8.92
2023-01-05T02:49:41.850Z,8.88
2023-01-05T02:54:50.342Z,8.89
2023-01-05T02:59:55.943Z,8.79
2023-01-05T03:05:06.982Z,8.83
2023-01-05T03:10:26.195Z,8.78
2023-01-05T03:15:33.524Z,8.79
2023-01-05T03:20:43.334Z,8.88
2023-01-05T03:26:05.301Z,9.07
2023-01-05T03:31:32.825Z,9.15
2023-01-05T03:36:45.262Z,9.22
2023-01-05T03:41:49.895Z,9.25
2023-01-05T03:46:54.767Z,9.33
2023-01-05T03:51:59.325Z,9.40
2023-01-05T03:57:03.232Z,9.43
2023-01-05T04:02:06.491Z,9.47
2023-01-05T04:07:11.207Z,9.54
2023-01-05T04:12:14.402Z,9.52
2023-01-05T04:17:20.018Z,9.56
2023-01-05T04:22:27.526Z,9.62
2023-01-05T04:27:31.791Z,9.61
2023-01-05T04:32:34.836Z,9.63
2023-01-05T04:37:40.213Z,9.65
2023-01-05T04:42:44.516Z,9.61
2023-01-05T04:47:48.796Z,9.59
2023-01-05T04:52:56.356Z,9.59
2023-01-05T04:57:59.770Z,9.61
2023-01-05T05:03:03.232Z,9.64
2023-01-05T05:08:10.094Z,9.66
2023-01-05T05:13:13.438Z,9.70
2023-01-05T05:18:16.574Z,9.71
2023-01-05T05:23:21.833Z,9.75
2023-01-05T05:28:28.397Z,9.78
2023-01-05T05:33:31.591Z,9.78
2023-01-05T05:38:35.939Z,9.77
2023-01-05T05:43:38.942Z,9.77
2023-01-05T05:48:41.891Z,9.79
2023-01-05T05:53:47.594Z,9.83
2023-01-05T05:58:53.599Z,9.87
2023-01-05T06:03:59.040Z,9.88
2023-01-05T06:09:03.411Z,9.84
2023-01-05T06:14:06.515Z,9.87
2023-01-05T06:19:10.756Z,9.86
2023-01-05T06:24:15.791Z,9.92
2023-01-05T06:29:21.955Z,9.88
2023-01-05T06:34:24.911Z,9.89
2023-01-05T06:39:29.338Z,9.91
2023-01-05T06:44:32.660Z,9.87
2023-01-05T06:49:38.495Z,9.88
2023-01-05T06:54:42.841Z,9.88
2023-01-05T06:59:45.972Z,9.87
2023-01-05T07:04:51.475Z,9.86
2023-01-05T07:09:55.879Z,9.87
2023-01-05T07:14:58.960Z,9.87
2023-01-05T07:20:01.895Z,9.88
2023-01-05T07:25:06.928Z,9.84
2023-01-05T07:30:11.448Z,9.83
2023-01-05T07:35:14.419Z,9.83
2023-01-05T07:40:19.970Z,9.77
2023-01-05T07:45:23.018Z,9.77
2023-01-05T07:50:26.085Z,9.76
2023-01-05T07:55:30.440Z,9.72
2023-01-05T08:00:33.615Z,9.74
2023-01-05T08:05:36.901Z,9.74
2023-01-05T08:10:42.643Z,9.74
2023-01-05T08:15:50.774Z,9.78
2023-01-05T08:20:55.454Z,9.82
2023-01-05T08:26:05.946Z,9.76
2023-01-05T08:31:12.347Z,9.72
2023-01-05T08:36:20.551Z,9.78
2023-01-05T08:41:28.132Z,9.90
2023-01-05T08:46:33.115Z,9.97
2023-01-05T08:51:36.883Z,9.98
2023-01-05T08:56:42.888Z,10.08
2023-01-05T09:01:47.492Z,10.08
2023-01-05T09:06:50.962Z,10.06
2023-01-05T09:11:55.383Z,10.09
2023-01-05T09:17:07.038Z,10.18
2023-01-05T09:22:10.710Z,10.23
2023-01-05T09:27:15.280Z,10.30
2023-01-05T09:32:20.833Z,10.36
2023-01-05T09:37:23.829Z,10.38
2023-01-05T09:42:32.423Z,10.45
2023-01-05T09:47:39.732Z,10.49
2023-01-05T09:52:42.776Z,10.54
2023-01-05T09:57:55.327Z,10.63
2023-01-05T10:03:02.419Z,10.65
2023-01-05T10:08:08.779Z,10.76
2023-01-05T10:13:25.812Z,10.88
2023-01-05T10:18:31.060Z,10.96
2023-01-05T10:23:50.679Z,10.90
2023-01-05T10:29:02.391Z,10.75
2023-01-05T10:34:16.615Z,10.75
2023-01-05T10:39:27.949Z,10.81
2023-01-05T10:44:52.967Z,11.08
2023-01-05T10:49:56.075Z,11.23
2023-01-05T10:55:01.481Z,11.13
2023-01-05T11:00:12.480Z,11.04
2023-01-05T11:05:31.680Z,11.03
2023-01-05T11:10:37.136Z,11.12
2023-01-05T11:15:45.263Z,11.14
2023-01-05T11:21:05.734Z,11.18
2023-01-05T11:26:28.237Z,11.24
2023-01-05T11:31:36.897Z,11.22
2023-01-05T11:36:41.780Z,11.20
2023-01-05T11:41:44.787Z,11.24
2023-01-05T11:46:52.012Z,11.17
2023-01-05T11:51:55.116Z,11.20
2023-01-05T11:57:14.969Z,11.31
2023-01-05T12:02:43.465Z,11.46
2023-01-05T12:07:50.853Z,11.53
2023-01-05T12:13:02.470Z,11.63
2023-01-05T12:18:20.208Z,11.68
2023-01-05T12:23:46.343Z,11.78
2023-01-05T12:31:06.534Z,12.03
2023-01-05T12:35:23.627Z,11.98
2023-01-05T12:40:40.465Z,12.01
2023-01-05T12:45:58.937Z,12.11
2023-01-05T12:51:11.072Z,12.14
2023-01-05T12:56:25.767Z,12.08
2023-01-05T13:01:32.154Z,12.09
2023-01-05T13:06:40.722Z,12.04
2023-01-05T13:11:48.906Z,12.22
2023-01-05T13:16:58.545Z,12.18
2023-01-05T13:22:06.020Z,11.96
2023-01-05T13:27:11.471Z,12.02
2023-01-05T13:38:02.944Z,12.06
2023-01-05T13:43:34.507Z,12.05
2023-01-05T13:49:04.540Z,11.95
2023-01-05T13:54:17.248Z,11.89
2023-01-05T13:59:39.807Z,11.83
2023-01-05T14:04:48.032Z,11.88
2023-01-05T14:09:56.133Z,11.98
2023-01-05T14:15:02.308Z,11.84
2023-01-05T14:20:30.630Z,11.90
2023-01-05T14:25:53.826Z,11.92
2023-01-05T14:31:36.323Z,11.92
2023-01-05T14:36:43.541Z,11.84
2023-01-05T14:41:59.173Z,11.72
2023-01-05T14:47:03.484Z,11.68
2023-01-05T14:52:18.466Z,11.62
2023-01-05T14:57:36.671Z,11.47
2023-01-05T15:02:53.331Z,11.23
2023-01-05T15:08:09.113Z,11.08
2023-01-05T15:13:37.923Z,11.00
2023-01-05T15:19:11.733Z,10.87
2023-01-05T15:24:56.618Z,10.86
2023-01-05T15:30:31.577Z,10.69
2023-01-05T15:35:40.451Z,10.67
2023-01-05T15:40:44.154Z,10.64
2023-01-05T15:45:53.626Z,10.58
2023-01-05T15:50:59.434Z,10.64
2023-01-05T15:56:03.227Z,10.62
2023-01-05T16:01:14.367Z,10.64
2023-01-05T16:06:23.235Z,10.63
2023-01-05T16:11:31.996Z,10.61
2023-01-05T16:16:55.565Z,10.58
2023-01-05T16:22:02.481Z,10.56
2023-01-05T16:27:07.257Z,10.53
2023-01-05T16:32:40.518Z,10.47
2023-01-05T16:37:43.592Z,10.45
2023-01-05T16:42:51.018Z,10.46
2023-01-05T16:47:57.573Z,10.43
2023-01-05T16:53:05.656Z,10.42
2023-01-05T16:58:36.293Z,10.42
2023-01-05T17:03:41.473Z,10.43
2023-01-05T17:08:44.776Z,10.46
2023-01-05T17:13:53.439Z,10.45
2023-01-05T17:19:00.717Z,10.46
2023-01-05T17:24:10.945Z,10.44
2023-01-05T17:29:21.536Z,10.51
2023-01-05T17:34:28.533Z,10.51
2023-01-05T17:44:35.698Z,10.49
2023-01-05T17:49:40.063Z,10.53
2023-01-05T17:54:44.298Z,10.55
2023-01-05T17:59:49.305Z,10.57
2023-01-05T18:04:53.909Z,10.58
2023-01-05T18:09:56.984Z,10.57
2023-01-05T18:15:00.500Z,10.63
2023-01-05T18:20:06.026Z,10.60
2023-01-05T18:25:12.506Z,10.64
2023-01-05T18:30:18.294Z,10.68
2023-01-05T18:35:24.063Z,10.69
2023-01-05T18:40:28.819Z,10.67
2023-01-05T18:45:39.194Z,10.65
2023-01-05T18:50:51.229Z,10.62
2023-01-05T18:55:56.771Z,10.60
2023-01-05T19:01:00.818Z,10.59
2023-01-05T19:06:07.937Z,10.58
2023-01-05T19:11:14.979Z,10.68
2023-01-05T19:16:23.607Z,10.77
2023-01-05T19:21:31.609Z,10.81
2023-01-05T19:26:40.563Z,10.84
2023-01-05T19:31:44.437Z,10.86
2023-01-05T19:36:51.788Z,10.82
2023-01-05T19:41:55.207Z,10.75
2023-01-05T19:46:58.505Z,10.76
2023-01-05T19:52:04.060Z,10.75
2023-01-05T19:57:10.215Z,10.74
2023-01-05T20:02:15.820Z,10.67
2023-01-05T20:07:23.237Z,10.66
2023-01-05T20:12:26.380Z,10.67
2023-01-05T20:17:29.620Z,10.65
2023-01-05T20:22:41.683Z,10.63
2023-01-05T20:27:49.261Z,10.62
2023-01-05T20:32:52.314Z,10.63
2023-01-05T20:37:56.902Z,10.62
2023-01-05T20:42:59.906Z,10.61
2023-01-05T20:48:03.385Z,10.57
2023-01-05T20:53:13.035Z,10.47
2023-01-05T20:58:16.019Z,10.53
2023-01-05T21:03:22.123Z,10.50
2023-01-05T21:08:26.776Z,10.55
2023-01-05T21:13:33.141Z,10.50
2023-01-05T21:18:36.391Z,10.46
2023-01-05T21:23:52.322Z,10.44
2023-01-05T21:28:56.433Z,10.41
2023-01-05T21:33:59.669Z,10.39
2023-01-05T21:39:07.332Z,10.37
2023-01-05T21:44:11.987Z,10.43
2023-01-05T21:49:16.197Z,10.43
2023-01-05T21:54:38.951Z,10.43
2023-01-05T21:59:43.508Z,10.43
2023-01-05T22:04:46.923Z,10.42
2023-01-05T22:09:51.300Z,10.44
2023-01-05T22:14:54.312Z,10.46
2023-01-05T22:19:57.369Z,10.45
2023-01-05T22:25:01.879Z,10.47
2023-01-05T22:30:05.787Z,10.50
2023-01-05T22:35:09.171Z,10.55
2023-01-05T22:40:14.377Z,10.57
2023-01-05T22:45:20.312Z,10.52
2023-01-05T22:50:23.373Z,10.44
2023-01-05T22:55:27.868Z,10.42
2023-01-05T23:00:30.903Z,10.48
2023-01-05T23:05:34.108Z,10.55
2023-01-05T23:10:38.542Z,10.58
2023-01-05T23:15:41.499Z,10.57
2023-01-05T23:20:44.479Z,10.56
2023-01-05T23:25:52.614Z,10.54
2023-01-05T23:30:57.434Z,10.51
2023-01-05T23:36:00.566Z,10.38
2023-01-05T23:41:08.213Z,10.33
2023-01-05T23:46:13.089Z,10.37
2023-01-05T23:51:17.265Z,10.33
2023-01-05T23:56:23.219Z,10.28
